createdAt,value
2019-01-13T00:00:11.615Z,6.50
2019-01-13T00:01:06.218Z,6.45
2019-01-13T00:02:59.034Z,6.60
2019-01-13T00:03:58.868Z,6.56
2019-01-13T00:05:51.740Z,6.61
2019-01-13T00:06:51.640Z,6.56
2019-01-13T00:08:44.413Z,6.53
2019-01-13T00:09:44.263Z,6.50
2019-01-13T00:11:37.621Z,6.63
2019-01-13T00:12:36.915Z,6.53
2019-01-13T00:14:29.703Z,6.50
2019-01-13T00:15:29.566Z,6.49
2019-01-13T00:17:22.351Z,6.55
2019-01-13T00:18:22.218Z,6.47
2019-01-13T00:20:14.983Z,6.46
2019-01-13T00:21:14.853Z,6.43
2019-01-13T00:23:07.689Z,6.38
2019-01-13T00:24:07.513Z,6.38
2019-01-13T00:26:00.381Z,6.47
2019-01-13T00:27:00.155Z,6.42
2019-01-13T00:28:53.023Z,6.49
2019-01-13T00:29:52.829Z,6.53
2019-01-13T00:31:45.571Z,6.50
2019-01-13T00:32:45.447Z,6.45
2019-01-13T00:34:38.218Z,6.55
2019-01-13T00:35:38.087Z,6.47
2019-01-13T00:37:30.897Z,6.50
2019-01-13T00:38:30.744Z,6.47
2019-01-13T00:40:23.649Z,6.55
2019-01-13T00:41:23.393Z,6.56
2019-01-13T00:43:16.169Z,6.52
2019-01-13T00:44:16.028Z,6.45
2019-01-13T00:46:08.816Z,6.49
2019-01-13T00:47:08.688Z,6.52
2019-01-13T00:49:01.456Z,6.55
2019-01-13T00:50:01.326Z,6.57
2019-01-13T00:51:54.098Z,6.46
2019-01-13T00:52:53.987Z,6.53
2019-01-13T00:54:46.762Z,6.61
2019-01-13T00:55:46.619Z,6.56
2019-01-13T00:57:39.393Z,6.57
2019-01-13T00:58:39.269Z,6.55
2019-01-13T01:00:32.057Z,6.40
2019-01-13T01:01:31.917Z,6.42
2019-01-13T01:03:24.801Z,6.40
2019-01-13T01:04:24.682Z,6.34
2019-01-13T01:06:17.458Z,6.24
2019-01-13T01:07:17.314Z,6.34
2019-01-13T01:09:10.612Z,6.25
2019-01-13T01:10:10.484Z,6.25
2019-01-13T01:12:03.238Z,6.18
2019-01-13T01:13:03.121Z,6.08
2019-01-13T01:14:55.995Z,6.11
2019-01-13T01:15:55.875Z,6.08
2019-01-13T01:17:48.637Z,6.09
2019-01-13T01:18:48.519Z,6.05
2019-01-13T01:20:41.278Z,5.95
2019-01-13T01:21:41.194Z,6.02
2019-01-13T01:23:33.932Z,5.82
2019-01-13T01:24:33.846Z,5.91
2019-01-13T01:26:26.653Z,5.75
2019-01-13T01:27:26.452Z,5.79
2019-01-13T01:29:19.226Z,5.77
2019-01-13T01:30:19.105Z,5.76
2019-01-13T01:32:11.893Z,5.76
2019-01-13T01:33:11.769Z,5.77
2019-01-13T01:35:04.632Z,5.80
2019-01-13T01:36:04.393Z,5.77
2019-01-13T01:37:57.256Z,5.79
2019-01-13T01:38:57.042Z,5.80
2019-01-13T01:40:49.811Z,5.82
2019-01-13T01:41:51.037Z,5.80
2019-01-13T01:43:42.460Z,5.90
2019-01-13T01:44:42.345Z,5.90
2019-01-13T01:46:35.107Z,6.00
2019-01-13T01:47:34.982Z,5.95
2019-01-13T01:49:27.770Z,6.06
2019-01-13T01:50:27.630Z,6.08
2019-01-13T01:52:20.401Z,6.12
2019-01-13T01:53:20.277Z,6.08
2019-01-13T01:55:13.657Z,6.19
2019-01-13T01:56:12.933Z,6.08
2019-01-13T01:58:05.715Z,6.03
2019-01-13T01:59:05.578Z,6.12
2019-01-13T02:00:58.505Z,6.13
2019-01-13T02:01:58.262Z,6.05
2019-01-13T02:03:51.187Z,6.09
2019-01-13T02:04:50.944Z,6.12
2019-01-13T02:06:43.777Z,6.12
2019-01-13T02:07:43.532Z,6.06
2019-01-13T02:09:36.290Z,6.05
2019-01-13T02:10:36.169Z,6.13
2019-01-13T02:12:28.958Z,6.06
2019-01-13T02:13:28.817Z,6.24
2019-01-13T02:15:21.580Z,6.09
2019-01-13T02:16:21.459Z,6.03
2019-01-13T02:18:14.244Z,6.19
2019-01-13T02:19:14.128Z,6.18
2019-01-13T02:21:07.384Z,6.24
2019-01-13T02:22:07.268Z,6.21
2019-01-13T02:24:00.034Z,6.21
2019-01-13T02:24:59.909Z,6.15
2019-01-13T02:26:52.719Z,6.28
2019-01-13T02:27:52.562Z,6.21
2019-01-13T02:29:45.321Z,6.21
2019-01-13T02:30:49.230Z,6.30
2019-01-13T02:32:37.989Z,6.34
2019-01-13T02:33:37.852Z,6.30
2019-01-13T02:35:30.625Z,6.24
2019-01-13T02:36:30.502Z,6.28
2019-01-13T02:38:23.270Z,6.34
2019-01-13T02:39:23.156Z,6.40
2019-01-13T02:41:15.931Z,6.35
2019-01-13T02:42:15.796Z,6.43
2019-01-13T02:44:08.583Z,6.47
2019-01-13T02:45:08.454Z,6.50
2019-01-13T02:47:01.308Z,6.53
2019-01-13T02:48:01.086Z,6.52
2019-01-13T02:49:53.882Z,6.52
2019-01-13T02:50:53.730Z,6.56
2019-01-13T02:52:46.519Z,6.57
2019-01-13T02:53:46.386Z,6.50
2019-01-13T02:55:39.715Z,6.49
2019-01-13T02:56:39.542Z,6.52
2019-01-13T02:58:32.311Z,6.53
2019-01-13T02:59:32.205Z,6.55
2019-01-13T03:01:25.069Z,6.61
2019-01-13T03:02:24.851Z,6.65
2019-01-13T03:04:17.625Z,6.63
2019-01-13T03:05:17.488Z,6.50
2019-01-13T03:07:10.266Z,6.61
2019-01-13T03:08:10.141Z,6.55
2019-01-13T03:10:03.015Z,6.56
2019-01-13T03:11:02.777Z,6.53
2019-01-13T03:12:55.564Z,6.64
2019-01-13T03:13:55.425Z,6.63
2019-01-13T03:15:48.211Z,6.65
2019-01-13T03:16:48.071Z,6.57
2019-01-13T03:18:40.938Z,6.56
2019-01-13T03:19:40.828Z,6.52
2019-01-13T03:21:33.687Z,6.57
2019-01-13T03:22:33.570Z,6.53
2019-01-13T03:24:26.448Z,6.57
2019-01-13T03:25:26.317Z,6.57
2019-01-13T03:27:19.198Z,6.65
2019-01-13T03:28:19.086Z,6.64
2019-01-13T03:30:11.949Z,6.71
2019-01-13T03:31:12.791Z,6.64
2019-01-13T03:33:04.701Z,6.82
2019-01-13T03:34:04.575Z,6.64
2019-01-13T03:35:57.443Z,6.78
2019-01-13T03:36:57.315Z,6.78
2019-01-13T03:38:50.221Z,6.74
2019-01-13T03:39:50.070Z,6.67
2019-01-13T03:41:42.944Z,6.65
2019-01-13T03:42:42.814Z,6.63
2019-01-13T03:44:35.691Z,6.63
2019-01-13T03:45:35.561Z,6.73
2019-01-13T03:47:28.437Z,6.65
2019-01-13T03:48:28.319Z,6.64
2019-01-13T03:50:21.215Z,6.61
2019-01-13T03:51:21.066Z,6.75
2019-01-13T03:53:13.946Z,6.67
2019-01-13T03:54:13.812Z,6.64
2019-01-13T03:56:06.684Z,6.67
2019-01-13T03:57:06.576Z,6.78
2019-01-13T03:58:59.463Z,6.70
2019-01-13T03:59:59.320Z,6.68
2019-01-13T04:01:52.227Z,6.71
2019-01-13T04:02:52.154Z,6.65
2019-01-13T04:04:44.939Z,6.64
2019-01-13T04:05:44.820Z,6.65
2019-01-13T04:07:37.705Z,6.68
2019-01-13T04:08:37.570Z,6.65
2019-01-13T04:10:30.784Z,6.70
2019-01-13T04:11:30.648Z,6.64
2019-01-13T04:13:23.517Z,6.71
2019-01-13T04:14:23.378Z,6.64
2019-01-13T04:16:16.756Z,6.67
2019-01-13T04:17:16.632Z,6.67
2019-01-13T04:19:09.506Z,6.64
2019-01-13T04:20:09.375Z,6.64
2019-01-13T04:22:02.274Z,6.63
2019-01-13T04:23:02.141Z,6.65
2019-01-13T04:24:55.026Z,6.67
2019-01-13T04:25:54.909Z,6.64
2019-01-13T04:27:47.782Z,6.70
2019-01-13T04:28:47.631Z,6.65
2019-01-13T04:30:40.522Z,6.70
2019-01-13T04:31:40.394Z,6.70
2019-01-13T04:33:33.263Z,6.67
2019-01-13T04:34:33.128Z,6.67
2019-01-13T04:36:26.009Z,6.67
2019-01-13T04:37:25.880Z,6.70
2019-01-13T04:39:18.766Z,6.64
2019-01-13T04:40:18.710Z,6.70
2019-01-13T04:42:11.514Z,6.65
2019-01-13T04:43:11.380Z,6.61
2019-01-13T04:45:04.268Z,6.63
2019-01-13T04:46:04.291Z,6.63
2019-01-13T04:47:57.001Z,6.63
2019-01-13T04:48:56.895Z,6.63
2019-01-13T04:50:49.767Z,6.63
2019-01-13T04:51:49.629Z,6.67
2019-01-13T04:53:42.501Z,6.67
2019-01-13T04:54:42.371Z,6.64
2019-01-13T04:56:35.252Z,6.63
2019-01-13T04:57:35.125Z,6.61
2019-01-13T04:59:28.001Z,6.61
2019-01-13T05:00:27.894Z,6.65
2019-01-13T05:02:20.775Z,6.70
2019-01-13T05:03:20.634Z,6.61
2019-01-13T05:05:13.506Z,6.65
2019-01-13T05:06:13.379Z,6.63
2019-01-13T05:08:06.249Z,6.65
2019-01-13T05:09:06.126Z,6.63
2019-01-13T05:10:58.997Z,6.64
2019-01-13T05:11:58.877Z,6.61
2019-01-13T05:13:51.766Z,6.65
2019-01-13T05:14:51.642Z,6.63
2019-01-13T05:16:44.505Z,6.70
2019-01-13T05:17:44.389Z,6.64
2019-01-13T05:19:37.247Z,6.65
2019-01-13T05:20:37.126Z,6.67
2019-01-13T05:22:29.996Z,6.67
2019-01-13T05:23:29.871Z,6.65
2019-01-13T05:25:22.749Z,6.65
2019-01-13T05:26:22.641Z,6.71
2019-01-13T05:28:15.500Z,6.68
2019-01-13T05:29:15.372Z,6.63
2019-01-13T05:31:08.272Z,6.63
2019-01-13T05:32:08.122Z,6.63
2019-01-13T05:34:00.999Z,6.64
2019-01-13T05:35:00.868Z,6.61
2019-01-13T05:36:53.751Z,6.61
2019-01-13T05:37:53.617Z,6.57
2019-01-13T05:39:46.505Z,6.65
2019-01-13T05:40:46.368Z,6.56
2019-01-13T05:42:39.267Z,6.63
2019-01-13T05:43:39.121Z,6.64
2019-01-13T05:45:31.992Z,6.65
2019-01-13T05:46:31.863Z,6.63
2019-01-13T05:48:24.747Z,6.79
2019-01-13T05:49:24.614Z,6.70
2019-01-13T05:51:17.490Z,6.64
2019-01-13T05:52:17.370Z,6.70
2019-01-13T05:54:10.240Z,6.65
2019-01-13T05:55:10.113Z,6.61
2019-01-13T05:57:03.013Z,6.64
2019-01-13T05:58:02.862Z,6.64
2019-01-13T05:59:55.742Z,6.63
2019-01-13T06:00:55.614Z,6.64
2019-01-13T06:02:48.498Z,6.83
2019-01-13T06:03:48.410Z,6.74
2019-01-13T06:05:41.264Z,6.78
2019-01-13T06:06:41.128Z,6.82
2019-01-13T06:08:33.999Z,6.81
2019-01-13T06:09:33.870Z,6.78
2019-01-13T06:11:26.761Z,6.81
2019-01-13T06:12:26.670Z,6.78
2019-01-13T06:14:19.510Z,6.78
2019-01-13T06:15:19.360Z,6.67
2019-01-13T06:17:12.242Z,6.65
2019-01-13T06:18:12.119Z,6.83
2019-01-13T06:20:05.010Z,6.78
2019-01-13T06:21:04.876Z,6.79
2019-01-13T06:22:57.738Z,6.78
2019-01-13T06:23:57.617Z,6.81
2019-01-13T06:25:50.502Z,6.78
2019-01-13T06:26:50.369Z,6.79
2019-01-13T06:28:43.238Z,6.74
2019-01-13T06:29:43.118Z,6.82
2019-01-13T06:31:36.002Z,6.64
2019-01-13T06:32:35.858Z,6.70
2019-01-13T06:34:28.765Z,6.79
2019-01-13T06:35:28.624Z,6.75
2019-01-13T06:37:21.495Z,6.82
2019-01-13T06:38:21.359Z,6.74
2019-01-13T06:40:14.249Z,6.74
2019-01-13T06:41:14.112Z,6.68
2019-01-13T06:43:07.004Z,6.78
2019-01-13T06:44:06.875Z,6.73
2019-01-13T06:45:59.813Z,6.78
2019-01-13T06:46:59.686Z,6.78
2019-01-13T06:48:52.584Z,6.78
2019-01-13T06:49:52.384Z,6.85
2019-01-13T06:51:45.239Z,6.75
2019-01-13T06:52:45.106Z,6.83
2019-01-13T06:54:37.991Z,6.75
2019-01-13T06:55:37.880Z,6.81
2019-01-13T06:57:30.737Z,6.83
2019-01-13T06:58:30.630Z,6.85
2019-01-13T07:00:23.514Z,6.82
2019-01-13T07:01:23.463Z,6.91
2019-01-13T07:03:16.239Z,6.89
2019-01-13T07:04:16.117Z,6.92
2019-01-13T07:06:08.991Z,6.91
2019-01-13T07:07:08.866Z,6.89
2019-01-13T07:09:01.777Z,6.83
2019-01-13T07:10:01.622Z,6.91
2019-01-13T07:11:54.505Z,6.85
2019-01-13T07:12:54.371Z,6.89
2019-01-13T07:14:47.255Z,6.89
2019-01-13T07:15:47.108Z,6.74
2019-01-13T07:17:39.984Z,6.86
2019-01-13T07:18:39.858Z,6.79
2019-01-13T07:20:32.747Z,6.86
2019-01-13T07:21:32.619Z,6.86
2019-01-13T07:23:25.487Z,6.82
2019-01-13T07:24:25.358Z,6.97
2019-01-13T07:26:18.290Z,6.97
2019-01-13T07:27:18.120Z,6.93
2019-01-13T07:29:10.994Z,6.83
2019-01-13T07:30:10.854Z,6.83
2019-01-13T07:32:10.595Z,6.73
2019-01-13T07:33:03.626Z,6.75
2019-01-13T07:34:56.476Z,6.78
2019-01-13T07:35:56.359Z,6.83
2019-01-13T07:37:49.346Z,6.81
2019-01-13T07:38:49.228Z,6.79
2019-01-13T07:40:42.091Z,6.81
2019-01-13T07:41:41.953Z,6.65
2019-01-13T07:43:34.830Z,6.68
2019-01-13T07:44:34.703Z,6.71
2019-01-13T07:46:27.591Z,6.63
2019-01-13T07:47:27.460Z,6.64
2019-01-13T07:49:20.346Z,6.68
2019-01-13T07:50:20.199Z,6.67
2019-01-13T07:52:13.118Z,6.68
2019-01-13T07:53:12.952Z,6.64
2019-01-13T07:55:05.829Z,6.68
2019-01-13T07:56:05.740Z,6.70
2019-01-13T07:57:58.578Z,6.75
2019-01-13T07:58:58.476Z,6.74
2019-01-13T08:00:51.896Z,6.67
2019-01-13T08:01:51.226Z,6.74
2019-01-13T08:03:44.212Z,6.79
2019-01-13T08:04:44.064Z,6.75
2019-01-13T08:06:36.959Z,6.64
2019-01-13T08:07:36.834Z,6.75
2019-01-13T08:09:29.703Z,6.79
2019-01-13T08:10:29.556Z,6.81
2019-01-13T08:12:22.431Z,6.65
2019-01-13T08:13:22.301Z,6.65
2019-01-13T08:15:15.187Z,6.68
2019-01-13T08:16:15.052Z,6.65
2019-01-13T08:18:07.847Z,6.70
2019-01-13T08:19:07.700Z,6.64
2019-01-13T08:21:00.469Z,6.68
2019-01-13T08:22:00.359Z,6.60
2019-01-13T08:23:53.123Z,6.68
2019-01-13T08:24:52.993Z,6.65
2019-01-13T08:26:45.787Z,6.68
2019-01-13T08:27:45.650Z,6.70
2019-01-13T08:29:38.417Z,6.78
2019-01-13T08:30:38.322Z,6.75
2019-01-13T08:32:31.056Z,6.67
2019-01-13T08:33:30.948Z,6.79
2019-01-13T08:35:23.708Z,6.78
2019-01-13T08:36:23.590Z,6.83
2019-01-13T08:38:16.366Z,6.82
2019-01-13T08:39:16.260Z,6.79
2019-01-13T08:41:09.012Z,6.91
2019-01-13T08:42:08.873Z,6.89
2019-01-13T08:44:01.657Z,6.88
2019-01-13T08:45:01.537Z,6.82
2019-01-13T08:46:54.302Z,6.93
2019-01-13T08:47:54.186Z,6.91
2019-01-13T08:49:46.942Z,6.96
2019-01-13T08:50:46.836Z,6.96
2019-01-13T08:52:39.595Z,7.04
2019-01-13T08:53:39.490Z,7.00
2019-01-13T08:55:32.239Z,6.92
2019-01-13T08:56:32.259Z,7.01
2019-01-13T08:58:24.883Z,6.99
2019-01-13T08:59:24.768Z,6.97
2019-01-13T09:01:17.642Z,6.97
2019-01-13T09:02:17.529Z,7.00
2019-01-13T09:04:10.529Z,6.99
2019-01-13T09:05:10.280Z,6.99
2019-01-13T09:07:03.037Z,7.15
2019-01-13T09:08:02.911Z,7.11
2019-01-13T09:09:55.697Z,7.19
2019-01-13T09:10:55.557Z,7.26
2019-01-13T09:12:48.331Z,7.24
2019-01-13T09:13:48.201Z,7.29
2019-01-13T09:15:41.501Z,7.34
2019-01-13T09:16:41.371Z,7.25
2019-01-13T09:18:34.132Z,7.37
2019-01-13T09:19:34.007Z,7.39
2019-01-13T09:21:26.785Z,7.39
2019-01-13T09:22:26.668Z,7.42
2019-01-13T09:24:19.943Z,7.47
2019-01-13T09:25:19.814Z,7.40
2019-01-13T09:27:12.582Z,7.46
2019-01-13T09:28:12.461Z,7.54
2019-01-13T09:30:05.743Z,7.55
2019-01-13T09:31:05.622Z,7.52
2019-01-13T09:32:58.408Z,7.58
2019-01-13T09:33:58.279Z,7.57
2019-01-13T09:35:51.582Z,7.47
2019-01-13T09:36:51.429Z,7.57
2019-01-13T09:38:44.224Z,7.57
2019-01-13T09:39:44.085Z,7.58
2019-01-13T09:41:36.866Z,7.66
2019-01-13T09:42:36.730Z,7.64
2019-01-13T09:44:29.524Z,7.69
2019-01-13T09:45:29.371Z,7.69
2019-01-13T09:47:22.662Z,7.73
2019-01-13T09:48:22.568Z,7.74
2019-01-13T09:50:15.883Z,7.77
2019-01-13T09:51:15.694Z,7.78
2019-01-13T09:53:08.476Z,7.86
2019-01-13T09:54:08.355Z,7.86
2019-01-13T09:56:01.131Z,7.88
2019-01-13T09:57:00.989Z,7.92
2019-01-13T09:58:54.280Z,7.92
2019-01-13T09:59:54.161Z,7.95
2019-01-13T10:01:47.434Z,7.88
2019-01-13T10:02:47.303Z,7.87
2019-01-13T10:04:40.195Z,7.91
2019-01-13T10:05:40.563Z,7.92
2019-01-13T10:07:32.975Z,7.94
2019-01-13T10:08:32.735Z,7.92
2019-01-13T10:10:25.488Z,7.92
2019-01-13T10:11:25.406Z,7.92
2019-01-13T10:13:18.230Z,7.86
2019-01-13T10:14:18.094Z,7.92
2019-01-13T10:16:11.399Z,7.92
2019-01-13T10:17:11.263Z,7.94
2019-01-13T10:19:04.057Z,8.04
2019-01-13T10:20:03.908Z,8.04
2019-01-13T10:21:56.781Z,8.05
2019-01-13T10:22:56.665Z,8.10
2019-01-13T10:24:49.566Z,8.05
2019-01-13T10:25:49.298Z,8.05
2019-01-13T10:27:42.078Z,8.06
2019-01-13T10:28:41.953Z,8.06
2019-01-13T10:30:34.836Z,8.13
2019-01-13T10:31:34.694Z,8.09
2019-01-13T10:33:27.495Z,8.06
2019-01-13T10:34:27.344Z,8.04
2019-01-13T10:36:20.122Z,8.10
2019-01-13T10:37:19.997Z,8.13
2019-01-13T10:39:12.756Z,8.06
2019-01-13T10:40:12.637Z,8.16
2019-01-13T10:42:05.413Z,8.06
2019-01-13T10:43:05.291Z,7.99
2019-01-13T10:44:58.084Z,8.05
2019-01-13T10:45:57.931Z,8.04
2019-01-13T10:47:50.821Z,7.95
2019-01-13T10:48:50.580Z,7.99
2019-01-13T10:50:43.371Z,7.99
2019-01-13T10:51:43.261Z,7.94
2019-01-13T10:53:36.024Z,7.92
2019-01-13T10:54:35.889Z,7.87
2019-01-13T10:56:28.669Z,7.92
2019-01-13T10:57:28.521Z,7.95
2019-01-13T10:59:21.310Z,7.88
2019-01-13T11:00:21.174Z,7.88
2019-01-13T11:02:14.054Z,7.92
2019-01-13T11:03:13.819Z,8.01
2019-01-13T11:05:06.730Z,7.92
2019-01-13T11:06:06.663Z,7.98
2019-01-13T11:07:59.550Z,7.99
2019-01-13T11:08:59.425Z,8.02
2019-01-13T11:10:52.306Z,8.14
2019-01-13T11:11:52.186Z,8.05
2019-01-13T11:13:44.998Z,8.04
2019-01-13T11:14:44.812Z,8.09
2019-01-13T11:16:37.704Z,8.19
2019-01-13T11:17:37.480Z,7.99
2019-01-13T11:19:30.347Z,8.10
2019-01-13T11:20:30.261Z,8.09
2019-01-13T11:22:23.009Z,8.21
2019-01-13T11:23:22.870Z,8.17
2019-01-13T11:25:15.656Z,8.19
2019-01-13T11:26:15.520Z,8.24
2019-01-13T11:28:08.397Z,8.24
2019-01-13T11:29:08.412Z,8.20
2019-01-13T11:31:01.117Z,8.28
2019-01-13T11:32:00.914Z,8.20
2019-01-13T11:33:54.662Z,8.29
2019-01-13T11:34:53.567Z,8.20
2019-01-13T11:36:46.327Z,8.28
2019-01-13T11:37:46.213Z,8.26
2019-01-13T11:39:38.980Z,8.38
2019-01-13T11:40:38.854Z,8.38
2019-01-13T11:42:31.639Z,8.37
2019-01-13T11:43:31.493Z,8.38
2019-01-13T11:45:24.302Z,8.39
2019-01-13T11:46:24.164Z,8.38
2019-01-13T11:48:17.013Z,8.50
2019-01-13T11:49:16.884Z,8.47
2019-01-13T11:51:09.660Z,8.44
2019-01-13T11:52:09.540Z,8.46
2019-01-13T11:54:02.542Z,8.49
2019-01-13T11:55:02.188Z,8.57
2019-01-13T11:56:54.977Z,8.49
2019-01-13T11:57:54.860Z,8.53
2019-01-13T11:59:48.659Z,8.57
2019-01-13T12:00:47.488Z,8.56
2019-01-13T12:02:40.254Z,8.56
2019-01-13T12:03:40.122Z,8.60
2019-01-13T12:05:33.426Z,8.56
2019-01-13T12:06:33.286Z,8.57
2019-01-13T12:08:26.162Z,8.62
2019-01-13T12:09:26.161Z,8.53
2019-01-13T12:11:18.970Z,8.75
2019-01-13T12:12:18.825Z,8.77
2019-01-13T12:14:12.613Z,8.71
2019-01-13T12:15:12.461Z,8.77
2019-01-13T12:17:05.243Z,8.74
2019-01-13T12:18:05.121Z,8.86
2019-01-13T12:19:57.953Z,8.89
2019-01-13T12:20:57.770Z,8.83
2019-01-13T12:22:50.753Z,8.92
2019-01-13T12:23:50.457Z,8.93
2019-01-13T12:25:43.450Z,8.88
2019-01-13T12:26:43.082Z,8.92
2019-01-13T12:28:36.388Z,8.96
2019-01-13T12:29:35.894Z,8.92
2019-01-13T12:31:28.813Z,8.89
2019-01-13T12:32:28.663Z,8.89
2019-01-13T12:34:21.474Z,8.93
2019-01-13T12:35:21.990Z,8.90
2019-01-13T12:37:14.064Z,8.90
2019-01-13T12:38:13.952Z,8.92
2019-01-13T12:40:06.738Z,8.88
2019-01-13T12:41:06.602Z,8.88
2019-01-13T12:42:59.873Z,8.85
2019-01-13T12:43:59.742Z,8.85
2019-01-13T12:45:52.521Z,8.72
2019-01-13T12:46:52.402Z,8.83
2019-01-13T12:48:45.281Z,8.83
2019-01-13T12:49:45.037Z,8.86
2019-01-13T12:51:37.835Z,8.75
2019-01-13T12:52:37.692Z,8.78
2019-01-13T12:54:30.484Z,8.75
2019-01-13T12:55:30.340Z,8.86
2019-01-13T12:57:23.113Z,8.83
2019-01-13T12:58:23.016Z,8.86
2019-01-13T13:00:15.789Z,8.89
2019-01-13T13:01:15.642Z,8.86
2019-01-13T13:03:08.415Z,8.93
2019-01-13T13:04:08.275Z,8.98
2019-01-13T13:06:01.246Z,8.92
2019-01-13T13:07:01.075Z,8.95
2019-01-13T13:08:53.918Z,8.98
2019-01-13T13:09:53.778Z,8.92
2019-01-13T13:11:46.657Z,8.92
2019-01-13T13:12:46.421Z,8.95
2019-01-13T13:14:39.202Z,8.96
2019-01-13T13:15:39.074Z,8.90
2019-01-13T13:17:31.851Z,8.93
2019-01-13T13:18:31.720Z,8.93
2019-01-13T13:20:24.598Z,8.95
2019-01-13T13:21:24.380Z,8.96
2019-01-13T13:23:17.341Z,8.92
2019-01-13T13:24:17.083Z,8.96
2019-01-13T13:26:09.985Z,8.95
2019-01-13T13:27:09.921Z,8.95
2019-01-13T13:29:02.648Z,8.92
2019-01-13T13:30:02.542Z,8.93
2019-01-13T13:31:55.395Z,8.92
2019-01-13T13:32:55.275Z,8.92
2019-01-13T13:34:48.034Z,8.93
2019-01-13T13:35:47.919Z,8.89
2019-01-13T13:37:40.686Z,8.95
2019-01-13T13:38:40.573Z,8.99
2019-01-13T13:40:33.381Z,8.95
2019-01-13T13:41:33.244Z,8.92
2019-01-13T13:43:26.107Z,8.92
2019-01-13T13:44:25.989Z,8.88
2019-01-13T13:46:18.833Z,8.88
2019-01-13T13:47:18.717Z,8.98
2019-01-13T13:49:11.677Z,8.95
2019-01-13T13:50:11.540Z,8.98
2019-01-13T13:52:04.358Z,8.93
2019-01-13T13:53:04.107Z,8.95
2019-01-13T13:54:56.971Z,8.90
2019-01-13T13:55:56.855Z,8.89
2019-01-13T13:57:49.642Z,8.89
2019-01-13T13:58:49.493Z,8.89
2019-01-13T14:00:42.275Z,8.90
2019-01-13T14:01:42.147Z,8.89
2019-01-13T14:03:35.515Z,8.88
2019-01-13T14:04:34.785Z,8.89
2019-01-13T14:06:27.600Z,8.92
2019-01-13T14:07:27.441Z,8.86
2019-01-13T14:09:20.222Z,8.90
2019-01-13T14:10:20.088Z,8.83
2019-01-13T14:12:12.964Z,8.85
2019-01-13T14:13:12.736Z,8.85
2019-01-13T14:15:05.550Z,8.88
2019-01-13T14:16:05.379Z,8.86
2019-01-13T14:17:58.149Z,8.83
2019-01-13T14:18:58.023Z,8.89
2019-01-13T14:20:50.910Z,8.89
2019-01-13T14:21:50.781Z,8.89
2019-01-13T14:23:43.549Z,8.90
2019-01-13T14:24:43.423Z,8.89
2019-01-13T14:26:36.193Z,8.95
2019-01-13T14:27:36.073Z,8.88
2019-01-13T14:29:28.959Z,8.99
2019-01-13T14:30:28.879Z,8.96
2019-01-13T14:32:21.742Z,8.99
2019-01-13T14:33:21.609Z,9.01
2019-01-13T14:35:14.473Z,9.09
2019-01-13T14:36:14.287Z,9.01
2019-01-13T14:38:07.121Z,9.04
2019-01-13T14:39:06.963Z,9.04
2019-01-13T14:40:59.864Z,9.08
2019-01-13T14:41:59.769Z,8.99
2019-01-13T14:43:52.646Z,9.03
2019-01-13T14:44:52.475Z,8.99
2019-01-13T14:46:45.252Z,8.96
2019-01-13T14:47:45.122Z,8.99
2019-01-13T14:49:37.900Z,8.90
2019-01-13T14:50:37.774Z,8.98
2019-01-13T14:52:31.189Z,8.90
2019-01-13T14:53:30.725Z,8.85
2019-01-13T14:55:23.633Z,8.88
2019-01-13T14:56:23.542Z,8.92
2019-01-13T14:58:16.346Z,8.90
2019-01-13T14:59:16.210Z,8.85
2019-01-13T15:01:09.081Z,8.86
2019-01-13T15:02:08.957Z,8.86
2019-01-13T15:04:01.740Z,8.80
2019-01-13T15:05:01.639Z,8.77
2019-01-13T15:06:54.384Z,8.72
2019-01-13T15:07:54.252Z,8.72
2019-01-13T15:09:47.030Z,8.72
2019-01-13T15:10:46.909Z,8.80
2019-01-13T15:12:40.179Z,8.85
2019-01-13T15:13:40.064Z,8.78
2019-01-13T15:15:32.829Z,8.80
2019-01-13T15:16:32.949Z,8.81
2019-01-13T15:18:25.579Z,8.83
2019-01-13T15:19:25.472Z,8.70
2019-01-13T15:21:18.330Z,8.81
2019-01-13T15:22:18.209Z,8.74
2019-01-13T15:24:11.107Z,8.72
2019-01-13T15:25:10.961Z,8.83
2019-01-13T15:27:03.829Z,8.74
2019-01-13T15:28:03.716Z,8.80
2019-01-13T15:29:56.991Z,8.77
2019-01-13T15:30:56.885Z,8.77
2019-01-13T15:32:50.284Z,8.86
2019-01-13T15:33:50.140Z,8.83
2019-01-13T15:35:43.129Z,8.85
2019-01-13T15:36:42.892Z,8.81
2019-01-13T15:38:35.760Z,8.80
2019-01-13T15:39:35.675Z,8.78
2019-01-13T15:41:28.619Z,8.90
2019-01-13T15:42:28.384Z,8.72
2019-01-13T15:44:21.785Z,8.83
2019-01-13T15:45:21.154Z,8.81
2019-01-13T15:47:14.539Z,8.78
2019-01-13T15:48:14.387Z,8.85
2019-01-13T15:50:09.120Z,8.86
2019-01-13T15:51:08.987Z,8.83
2019-01-13T15:53:03.301Z,8.89
2019-01-13T15:54:03.175Z,8.93
2019-01-13T15:55:56.445Z,8.89
2019-01-13T15:56:56.319Z,8.86
2019-01-13T15:58:49.195Z,8.81
2019-01-13T15:59:49.102Z,8.80
2019-01-13T16:01:42.472Z,8.75
2019-01-13T16:02:42.327Z,8.74
2019-01-13T16:04:35.261Z,8.86
2019-01-13T16:05:35.199Z,8.83
2019-01-13T16:07:27.977Z,8.89
2019-01-13T16:08:27.864Z,8.88
2019-01-13T16:10:20.712Z,8.86
2019-01-13T16:11:20.594Z,8.78
2019-01-13T16:13:13.447Z,8.86
2019-01-13T16:14:13.344Z,8.80
2019-01-13T16:16:07.738Z,8.88
2019-01-13T16:17:07.683Z,8.85
2019-01-13T16:19:01.007Z,8.83
2019-01-13T16:20:00.889Z,8.78
2019-01-13T16:21:54.633Z,8.81
2019-01-13T16:22:53.643Z,8.75
2019-01-13T16:24:51.535Z,8.86
2019-01-13T16:25:51.398Z,8.77
2019-01-13T16:27:44.972Z,8.70
2019-01-13T16:28:44.176Z,8.86
2019-01-13T16:30:37.054Z,8.80
2019-01-13T16:31:36.970Z,8.85
2019-01-13T16:33:31.180Z,8.78
2019-01-13T16:34:30.035Z,8.80
2019-01-13T16:36:23.178Z,8.75
2019-01-13T16:37:22.905Z,8.89
2019-01-13T16:39:15.827Z,8.74
2019-01-13T16:40:15.662Z,8.81
2019-01-13T16:42:10.021Z,8.77
2019-01-13T16:43:09.996Z,8.72
2019-01-13T16:45:03.154Z,8.75
2019-01-13T16:46:02.771Z,8.77
2019-01-13T16:47:55.483Z,8.81
2019-01-13T16:48:55.352Z,8.78
2019-01-13T16:50:48.756Z,8.86
2019-01-13T16:51:48.608Z,8.83
2019-01-13T16:53:41.496Z,8.80
2019-01-13T16:54:41.363Z,8.80
2019-01-13T16:56:34.289Z,8.90
2019-01-13T16:57:34.186Z,8.90
2019-01-13T16:59:26.996Z,8.96
2019-01-13T17:00:26.858Z,8.90
2019-01-13T17:02:19.760Z,8.93
2019-01-13T17:03:19.593Z,8.89
2019-01-13T17:05:12.476Z,8.89
2019-01-13T17:06:12.352Z,8.86
2019-01-13T17:08:05.217Z,8.85
2019-01-13T17:09:05.095Z,8.85
2019-01-13T17:10:57.981Z,8.78
2019-01-13T17:11:57.842Z,8.89
2019-01-13T17:13:51.227Z,8.85
2019-01-13T17:14:51.142Z,8.95
2019-01-13T17:16:43.998Z,8.81
2019-01-13T17:17:43.884Z,8.85
2019-01-13T17:19:36.750Z,8.80
2019-01-13T17:20:36.624Z,8.86
2019-01-13T17:22:29.513Z,8.83
2019-01-13T17:23:29.357Z,8.80
2019-01-13T17:25:22.244Z,8.72
2019-01-13T17:26:22.308Z,8.77
2019-01-13T17:28:14.979Z,8.72
2019-01-13T17:29:14.868Z,8.77
2019-01-13T17:31:07.726Z,8.77
2019-01-13T17:32:07.673Z,8.75
2019-01-13T17:34:00.481Z,8.78
2019-01-13T17:35:00.348Z,8.75
2019-01-13T17:36:53.257Z,8.77
2019-01-13T17:37:53.132Z,8.77
2019-01-13T17:39:45.977Z,8.71
2019-01-13T17:40:45.861Z,8.60
2019-01-13T17:42:39.737Z,8.67
2019-01-13T17:43:39.451Z,8.55
2019-01-13T17:45:31.480Z,8.60
2019-01-13T17:46:31.352Z,8.47
2019-01-13T17:48:24.234Z,8.44
2019-01-13T17:49:24.112Z,8.44
2019-01-13T17:51:17.002Z,8.23
2019-01-13T17:52:16.853Z,8.09
2019-01-13T17:54:09.929Z,7.87
2019-01-13T17:55:09.802Z,7.86
2019-01-13T17:57:02.686Z,7.74
2019-01-13T17:58:02.614Z,7.66
2019-01-13T17:59:55.438Z,7.60
2019-01-13T18:00:55.319Z,7.64
2019-01-13T18:02:48.249Z,7.52
2019-01-13T18:03:48.106Z,7.62
2019-01-13T18:05:41.044Z,7.55
2019-01-13T18:06:41.127Z,7.58
2019-01-13T18:08:34.413Z,7.40
2019-01-13T18:09:33.655Z,7.42
2019-01-13T18:11:26.552Z,7.42
2019-01-13T18:12:26.668Z,7.44
2019-01-13T18:14:19.343Z,7.36
2019-01-13T18:15:19.151Z,7.36
2019-01-13T18:17:12.098Z,7.31
2019-01-13T18:18:11.901Z,7.22
2019-01-13T18:20:04.799Z,7.26
2019-01-13T18:21:04.657Z,7.29
2019-01-13T18:22:57.547Z,7.26
2019-01-13T18:23:57.406Z,7.29
2019-01-13T18:25:50.280Z,7.25
2019-01-13T18:26:50.162Z,7.24
2019-01-13T18:28:42.946Z,7.24
2019-01-13T18:29:42.804Z,7.21
2019-01-13T18:31:35.690Z,7.21
2019-01-13T18:32:35.554Z,7.18
2019-01-13T18:34:28.454Z,7.18
2019-01-13T18:35:28.300Z,7.18
2019-01-13T18:37:21.186Z,7.16
2019-01-13T18:38:21.052Z,7.19
2019-01-13T18:40:13.917Z,7.16
2019-01-13T18:41:13.807Z,7.16
2019-01-13T18:43:06.690Z,7.18
2019-01-13T18:44:06.550Z,7.26
2019-01-13T18:45:59.421Z,7.19
2019-01-13T18:46:59.307Z,7.26
2019-01-13T18:48:52.174Z,7.25
2019-01-13T18:49:52.050Z,7.31
2019-01-13T18:51:44.942Z,7.31
2019-01-13T18:54:38.511Z,7.31
2019-01-13T18:55:37.607Z,7.28
2019-01-13T18:57:30.425Z,7.25
2019-01-13T18:58:30.302Z,7.24
2019-01-13T19:00:23.666Z,7.22
2019-01-13T19:01:23.292Z,7.21
2019-01-13T19:03:16.159Z,7.25
2019-01-13T19:04:16.005Z,7.28
2019-01-13T19:06:08.891Z,7.22
2019-01-13T19:07:08.851Z,7.31
2019-01-13T19:09:01.643Z,7.26
2019-01-13T19:10:01.520Z,7.22